Lamy, NM (87540)

7:09 AM MST on November 19, 2017 (GMT -0700)
Spirit Wind Ranch (Lamy NM) | | Change Station

Elev 6518 ft 35.48 °N, 105.90 °W | Updated 27 seconds ago

Clear
Clear
13.5 °F
Feels Like 14 °F
N
0.0
Wind Variable Wind from SW
Gusts 0.0 mph

Today
High -- | Low -- °F
--% Chance of Precip.
Yesterday
High -- | Low -- °F
Precip. -- in
Pressure 30.34 in
Visibility 10.0 miles
Clouds Clear
Windchill 14 °F
Dew Point 0 °F
Humidity 55%
Rainfall 0.00 in
Snow Depth Not available.
6:43 AM 4:54 PM
New Moon, 1% visible
METAR KSAF 191353Z AUTO 35009KT 10SM CLR M06/M12 A3031 RMK AO2 SLP274 T10611117
Pressure 30.34 in
Visibility 10.0 miles
Clouds Clear
Windchill 14 °F
Dew Point 0 °F
Humidity 55%
Rainfall 0.00 in
Snow Depth Not available.
6:43 AM 4:54 PM
New Moon, 1% visible
METAR KSAF 191353Z AUTO 35009KT 10SM CLR M06/M12 A3031 RMK AO2 SLP274 T10611117

Get Severe Weather Alerts

Thanks for signing up!

Be on the lookout for a verification email in your inbox.

You'll start receiving the daily forecast at 6 AM.

×

10-Day Weather Forecast

Almanac

Astronomy

Nov. 19, 2017 Rise Set
Actual Time
Civil Twilight
Nautical Twilight
Astronomical Twilight
Moon
Length of Visible Light
Length of Day
Tomorrow will be .
, % of the Moon is Illuminated

Today's Extremes

State Highs State Lows

Community

WunderPhotos

Category 6

Welcome to Category 6. This is the collective home for Weather Underground's featured writeups by Dr. Jeff Masters (right), Bob Henson (left), Chris Burt, and other regular contributors.

Nearby

Air Quality

  Air Quality AQ Index Pollutant
Not available.

Snow Depth

Station Depth Elevation

Earthquake Activity

City Distance Mag. Time & Date
Minimum magnitude displayed is 2.5.

Coastal Water Temperatures

Place Temperature

Stations

Nearby Weather Stations

Station Location Temp. Windchill Dew Point Humidity Wind Precip. Elev Updated Type
                   

Watches & Warnings

There are currently no watches in effect.